Richard B Russell Airport
KRMG : now visible

Airfield :











YOU CAN JOIN US ON...

 
LOGIN :

Register | Disclaimer

   EN    FR    IT 

 









Legend :    VFR   Marginal VFR   IFR   Intensive IFR   Very Intensive IFR
Visi :
Ceiling :
>= 8 km
>= 3000ft
5 to 8 km
1000 to 3000 ft
1500m to 5 km
500 to 1000 ft
800 to 1500m
200 to 500 ft
< 800m
< 200 ft
Symbols :   Thunderstorms  Fog  Heavy snow  Heavy precipitations  Wind > 20 kt







- Airport Elevation : 644 ft


KRMG - Richard B Russell

CURRENT METAR :
  • 191953Z AUTO 26011G16KT 230V290 10SM BKN021 OVC027 16/11 A2947 RMK AO2 SLP971 T01560106

EXPIRED METARs :
  • 191853Z AUTO 25010G17KT 10SM BKN019 OVC026 17/12 A2946 RMK AO2 SLP969 T01720117
  • 191822Z AUTO 24010G20KT 10SM BKN020 BKN036 OVC055 18/13 A2946 RMK AO2 T01830128
  • 191753Z AUTO 24012G22KT 10SM SCT021 BKN032 OVC047 17/13 A2946 RMK AO2 PK WND 25027/1742 SLP969 60003 T01670128 10194 20167 55003

TAF N/A
KZTL FIR / North America



MET'MAP, your aeronautical weather chart ! - Copyright ORBIFLY December 2007 - Disclaimer

ORBIFLY MET'MAP TEAM :

Programming & Development : Alexandra Zaïnal
Concept & Development : Baudouin d'Aumeries
Co-Development & Prog : Marc-Olivier Méhu
Technical & hardware support : Manuel Goepfert

Contact : metmap@orbifly.com




SOURCES & CREDITS :

   NOAA       Earth
Advisory